sensor_id;sensor_type;location;lat;lon;timestamp;pressure;altitude;pressure_sealevel;temperature;humidity
49423;BME280;36998;51.974;20.150;2022-07-03T12:09:38;100438.78;;;46.57;13.53
49423;BME280;36998;51.974;20.150;2022-07-03T12:12:06;100431.16;;;45.88;14.37
49423;BME280;36998;51.974;20.150;2022-07-03T12:14:51;100420.84;;;46.82;14.17
49423;BME280;36998;51.974;20.150;2022-07-03T12:17:22;100423.53;;;48.03;13.09
49423;BME280;36998;51.974;20.150;2022-07-03T12:19:53;100421.28;;;51.01;10.92
49423;BME280;36998;51.974;20.150;2022-07-03T12:22:26;100416.25;;;56.48;7.65
49423;BME280;36998;51.974;20.150;2022-07-03T12:27:25;100412.75;;;63.46;4.70
49423;BME280;36998;51.974;20.150;2022-07-03T12:29:52;100398.53;;;65.43;3.42
49423;BME280;36998;51.974;20.150;2022-07-03T12:32:17;100399.72;;;66.99;2.56
49423;BME280;36998;51.974;20.150;2022-07-03T12:34:43;100379.75;;;67.75;2.59
49423;BME280;36998;51.974;20.150;2022-07-03T12:37:09;100378.06;;;67.47;2.47
49423;BME280;36998;51.974;20.150;2022-07-03T12:39:45;100359.56;;;67.66;2.84
49423;BME280;36998;51.974;20.150;2022-07-03T12:42:18;100360.13;;;68.10;2.84
49423;BME280;36998;51.974;20.150;2022-07-03T12:45:02;100351.34;;;69.52;2.28
49423;BME280;36998;51.974;20.150;2022-07-03T12:47:29;100359.41;;;70.51;2.08
49423;BME280;36998;51.974;20.150;2022-07-03T12:49:56;100346.47;;;71.21;1.66
49423;BME280;36998;51.974;20.150;2022-07-03T12:52:23;100336.75;;;71.05;1.03
49423;BME280;36998;51.974;20.150;2022-07-03T12:54:49;100346.31;;;70.75;1.50
49423;BME280;36998;51.974;20.150;2022-07-03T12:57:14;100337.44;;;70.75;0.96
49423;BME280;36998;51.974;20.150;2022-07-03T13:00:05;100321.19;;;67.01;2.25
49423;BME280;36998;51.974;20.150;2022-07-03T13:02:32;100314.97;;;64.00;2.87
49423;BME280;36998;51.974;20.150;2022-07-03T13:04:58;100330.50;;;61.29;4.38
49423;BME280;36998;51.974;20.150;2022-07-03T13:07:29;100327.25;;;63.76;3.17
49423;BME280;36998;51.974;20.150;2022-07-03T13:09:59;100330.47;;;66.24;2.67
49423;BME280;36998;51.974;20.150;2022-07-03T13:12:24;100334.53;;;67.21;2.63
49423;BME280;36998;51.974;20.150;2022-07-03T13:15:00;100318.19;;;64.02;2.96
49423;BME280;36998;51.974;20.150;2022-07-03T13:20:14;100313.06;;;56.19;6.17
49423;BME280;36998;51.974;20.150;2022-07-03T13:22:40;100311.75;;;57.95;5.27
49423;BME280;36998;51.974;20.150;2022-07-03T13:25:06;100301.16;;;56.26;6.21
49423;BME280;36998;51.974;20.150;2022-07-03T13:27:31;100306.97;;;53.45;7.49
49423;BME280;36998;51.974;20.150;2022-07-03T13:29:57;100321.41;;;51.45;8.99
49423;BME280;36998;51.974;20.150;2022-07-03T13:32:22;100316.72;;;49.83;10.31
49423;BME280;36998;51.974;20.150;2022-07-03T13:34:48;100308.50;;;49.51;9.92
49423;BME280;36998;51.974;20.150;2022-07-03T13:37:13;100305.34;;;48.59;10.40
49423;BME280;36998;51.974;20.150;2022-07-03T13:39:38;100313.44;;;47.20;11.43
49423;BME280;36998;51.974;20.150;2022-07-03T13:42:04;100305.28;;;48.06;10.25
49423;BME280;36998;51.974;20.150;2022-07-03T13:44:30;100303.69;;;52.19;8.39
49423;BME280;36998;51.974;20.150;2022-07-03T13:46:56;100300.41;;;55.73;6.66
49423;BME280;36998;51.974;20.150;2022-07-03T13:49:21;100298.97;;;58.02;5.55
49423;BME280;36998;51.974;20.150;2022-07-03T13:51:47;100302.66;;;60.11;4.77
49423;BME280;36998;51.974;20.150;2022-07-03T13:54:13;100309.56;;;61.63;3.86
49423;BME280;36998;51.974;20.150;2022-07-03T13:56:38;100308.25;;;59.80;4.80
49423;BME280;36998;51.974;20.150;2022-07-03T13:59:03;100300.59;;;56.59;6.06
49423;BME280;36998;51.974;20.150;2022-07-03T14:01:29;100294.47;;;54.15;7.39
49423;BME280;36998;51.974;20.150;2022-07-03T14:03:54;100284.16;;;54.87;7.46
49423;BME280;36998;51.974;20.150;2022-07-03T14:06:20;100288.34;;;54.86;7.22
49423;BME280;36998;51.974;20.150;2022-07-03T14:08:45;100294.97;;;53.17;8.09
49423;BME280;36998;51.974;20.150;2022-07-03T14:11:11;100289.19;;;50.67;9.53
49423;BME280;36998;51.974;20.150;2022-07-03T14:13:36;100288.31;;;48.86;10.65
49423;BME280;36998;51.974;20.150;2022-07-03T14:16:02;100294.56;;;47.44;11.68
49423;BME280;36998;51.974;20.150;2022-07-03T14:18:28;100281.19;;;46.09;12.46
49423;BME280;36998;51.974;20.150;2022-07-03T14:20:53;100279.25;;;44.70;13.29
49423;BME280;36998;51.974;20.150;2022-07-03T14:23:18;100270.38;;;43.56;14.12
49423;BME280;36998;51.974;20.150;2022-07-03T14:25:44;100278.00;;;42.46;14.49
49423;BME280;36998;51.974;20.150;2022-07-03T14:28:09;100283.94;;;41.56;15.45
49423;BME280;36998;51.974;20.150;2022-07-03T14:30:54;100287.91;;;40.65;15.91
49423;BME280;36998;51.974;20.150;2022-07-03T14:33:37;100284.66;;;39.75;16.78
49423;BME280;36998;51.974;20.150;2022-07-03T14:36:03;100292.13;;;39.02;17.44
49423;BME280;36998;51.974;20.150;2022-07-03T14:38:29;100294.13;;;38.40;17.68
49423;BME280;36998;51.974;20.150;2022-07-03T14:40:54;100284.06;;;37.85;18.41
49423;BME280;36998;51.974;20.150;2022-07-03T14:43:20;100290.69;;;37.47;19.45
49423;BME280;36998;51.974;20.150;2022-07-03T14:45:45;100284.06;;;37.43;19.32
49423;BME280;36998;51.974;20.150;2022-07-03T14:48:11;100288.31;;;37.70;19.34
49423;BME280;36998;51.974;20.150;2022-07-03T14:50:36;100278.31;;;40.38;16.80
49423;BME280;36998;51.974;20.150;2022-07-03T14:53:05;100273.47;;;43.17;14.51
49423;BME280;36998;51.974;20.150;2022-07-03T14:55:34;100265.13;;;44.84;13.36
49423;BME280;36998;51.974;20.150;2022-07-03T14:58:18;100263.59;;;45.01;13.06
49423;BME280;36998;51.974;20.150;2022-07-03T15:00:48;100258.59;;;44.32;13.28
49423;BME280;36998;51.974;20.150;2022-07-03T15:03:28;100266.03;;;42.83;14.88
49423;BME280;36998;51.974;20.150;2022-07-03T15:05:56;100268.34;;;42.50;14.86
49423;BME280;36998;51.974;20.150;2022-07-03T15:10:53;100250.31;;;42.39;14.84
49423;BME280;36998;51.974;20.150;2022-07-03T15:13:19;100251.97;;;42.40;14.62
49423;BME280;36998;51.974;20.150;2022-07-03T15:15:47;100253.19;;;42.66;14.19
49423;BME280;36998;51.974;20.150;2022-07-03T15:18:17;100253.41;;;43.33;14.39
49423;BME280;36998;51.974;20.150;2022-07-03T15:20:43;100255.06;;;45.05;13.39
49423;BME280;36998;51.974;20.150;2022-07-03T15:23:09;100250.22;;;46.64;11.94
49423;BME280;36998;51.974;20.150;2022-07-03T15:25:39;100240.31;;;48.00;11.77
49423;BME280;36998;51.974;20.150;2022-07-03T15:28:08;100244.59;;;48.74;11.02
49423;BME280;36998;51.974;20.150;2022-07-03T15:30:35;100244.41;;;48.55;11.65
49423;BME280;36998;51.974;20.150;2022-07-03T15:33:01;100250.69;;;48.84;11.00
49423;BME280;36998;51.974;20.150;2022-07-03T15:35:27;100245.47;;;49.09;10.53
49423;BME280;36998;51.974;20.150;2022-07-03T15:38:13;100233.78;;;49.27;10.41
49423;BME280;36998;51.974;20.150;2022-07-03T15:43:25;100243.03;;;45.37;12.90
49423;BME280;36998;51.974;20.150;2022-07-03T15:46:02;100239.38;;;43.85;14.29
49423;BME280;36998;51.974;20.150;2022-07-03T15:54:27;100230.44;;;40.01;17.38
49423;BME280;36998;51.974;20.150;2022-07-03T15:56:56;100237.16;;;39.12;18.42
49423;BME280;36998;51.974;20.150;2022-07-03T15:59:26;100241.41;;;38.32;19.06
49423;BME280;36998;51.974;20.150;2022-07-03T16:01:53;100238.06;;;37.93;19.11
49423;BME280;36998;51.974;20.150;2022-07-03T16:07:29;100233.94;;;37.16;20.21
49423;BME280;36998;51.974;20.150;2022-07-03T16:09:57;100230.50;;;36.60;20.91
49423;BME280;36998;51.974;20.150;2022-07-03T16:12:24;100228.03;;;36.11;21.66
49423;BME280;36998;51.974;20.150;2022-07-03T16:14:51;100231.75;;;35.68;22.07
49423;BME280;36998;51.974;20.150;2022-07-03T16:17:19;100230.94;;;35.33;22.18
49423;BME280;36998;51.974;20.150;2022-07-03T16:19:46;100236.53;;;35.07;23.14
49423;BME280;36998;51.974;20.150;2022-07-03T16:22:12;100242.13;;;34.89;22.89
49423;BME280;36998;51.974;20.150;2022-07-03T16:24:39;100240.44;;;34.80;23.40
49423;BME280;36998;51.974;20.150;2022-07-03T16:27:04;100236.97;;;34.83;23.40
49423;BME280;36998;51.974;20.150;2022-07-03T16:29:30;100247.03;;;34.84;22.80
49423;BME280;36998;51.974;20.150;2022-07-03T16:31:58;100232.38;;;34.87;23.01
49423;BME280;36998;51.974;20.150;2022-07-03T16:34:38;100234.66;;;34.85;22.87
49423;BME280;36998;51.974;20.150;2022-07-03T16:37:07;100232.31;;;34.69;23.08
49423;BME280;36998;51.974;20.150;2022-07-03T16:39:37;100225.13;;;34.46;23.43
49423;BME280;36998;51.974;20.150;2022-07-03T16:42:05;100229.09;;;35.28;22.40
49423;BME280;36998;51.974;20.150;2022-07-03T16:44:37;100225.59;;;36.98;20.94
49423;BME280;36998;51.974;20.150;2022-07-03T16:47:04;100229.00;;;37.67;20.55
49423;BME280;36998;51.974;20.150;2022-07-03T16:49:37;100213.88;;;38.78;19.37
49423;BME280;36998;51.974;20.150;2022-07-03T16:52:10;100215.56;;;38.67;19.39
49423;BME280;36998;51.974;20.150;2022-07-03T16:54:37;100230.63;;;37.56;20.86
49423;BME280;36998;51.974;20.150;2022-07-03T16:57:04;100227.47;;;36.65;21.54
49423;BME280;36998;51.974;20.150;2022-07-03T16:59:31;100231.53;;;35.91;22.41
49423;BME280;36998;51.974;20.150;2022-07-03T17:01:58;100236.22;;;35.26;22.39
49423;BME280;36998;51.974;20.150;2022-07-03T17:04:28;100234.19;;;34.83;23.02
49423;BME280;36998;51.974;20.150;2022-07-03T17:06:54;100239.66;;;34.48;23.29
49423;BME280;36998;51.974;20.150;2022-07-03T17:09:21;100233.06;;;33.82;23.97
49423;BME280;36998;51.974;20.150;2022-07-03T17:11:48;100237.09;;;33.30;24.70
49423;BME280;36998;51.974;20.150;2022-07-03T17:14:14;100232.63;;;32.79;25.54
49423;BME280;36998;51.974;20.150;2022-07-03T17:16:49;100228.59;;;32.30;26.45
49423;BME280;36998;51.974;20.150;2022-07-03T17:19:21;100233.31;;;31.88;26.63
49423;BME280;36998;51.974;20.150;2022-07-03T17:21:48;100237.50;;;31.53;27.64
49423;BME280;36998;51.974;20.150;2022-07-03T17:24:17;100227.00;;;31.64;27.97
49423;BME280;36998;51.974;20.150;2022-07-03T17:26:47;100232.44;;;32.62;26.87
49423;BME280;36998;51.974;20.150;2022-07-03T17:29:18;100219.81;;;33.73;25.85
49423;BME280;36998;51.974;20.150;2022-07-03T17:31:45;100214.81;;;34.64;24.45
49423;BME280;36998;51.974;20.150;2022-07-03T17:34:14;100203.84;;;35.20;24.39
49423;BME280;36998;51.974;20.150;2022-07-03T17:36:42;100212.41;;;35.75;23.79
49423;BME280;36998;51.974;20.150;2022-07-03T17:39:09;100210.66;;;36.18;22.39
49423;BME280;36998;51.974;20.150;2022-07-03T17:41:35;100210.22;;;36.37;22.43
49423;BME280;36998;51.974;20.150;2022-07-03T17:44:02;100212.19;;;36.36;22.66
49423;BME280;36998;51.974;20.150;2022-07-03T17:46:29;100204.84;;;36.52;22.28
49423;BME280;36998;51.974;20.150;2022-07-03T17:48:55;100203.16;;;36.30;22.27
49423;BME280;36998;51.974;20.150;2022-07-03T17:51:24;100208.13;;;35.69;22.42
49423;BME280;36998;51.974;20.150;2022-07-03T17:53:50;100200.06;;;35.33;23.03
49423;BME280;36998;51.974;20.150;2022-07-03T17:56:22;100205.19;;;35.22;23.00
49423;BME280;36998;51.974;20.150;2022-07-03T17:58:49;100206.66;;;35.20;23.14
49423;BME280;36998;51.974;20.150;2022-07-03T18:01:18;100200.22;;;35.19;23.04
49423;BME280;36998;51.974;20.150;2022-07-03T18:03:45;100200.38;;;35.14;23.32
49423;BME280;36998;51.974;20.150;2022-07-03T18:06:17;100205.25;;;34.65;24.42
49423;BME280;36998;51.974;20.150;2022-07-03T18:09:45;100200.38;;;33.77;25.30
49423;BME280;36998;51.974;20.150;2022-07-03T18:14:43;100207.03;;;32.31;27.14
49423;BME280;36998;51.974;20.150;2022-07-03T18:17:13;100207.06;;;31.70;28.13
49423;BME280;36998;51.974;20.150;2022-07-03T18:19:40;100201.16;;;31.20;28.80
49423;BME280;36998;51.974;20.150;2022-07-03T18:22:08;100201.81;;;30.74;29.14
49423;BME280;36998;51.974;20.150;2022-07-03T18:24:36;100211.50;;;30.34;30.31
49423;BME280;36998;51.974;20.150;2022-07-03T18:27:07;100214.22;;;30.15;30.38
49423;BME280;36998;51.974;20.150;2022-07-03T18:29:36;100208.84;;;29.95;31.06
49423;BME280;36998;51.974;20.150;2022-07-03T18:32:02;100212.38;;;29.76;31.36
49423;BME280;36998;51.974;20.150;2022-07-03T18:34:28;100214.06;;;29.38;32.12
49423;BME280;36998;51.974;20.150;2022-07-03T18:36:55;100225.13;;;29.04;32.51
49423;BME280;36998;51.974;20.150;2022-07-03T18:39:22;100218.66;;;28.69;33.43
49423;BME280;36998;51.974;20.150;2022-07-03T18:41:48;100232.38;;;28.40;33.51
49423;BME280;36998;51.974;20.150;2022-07-03T18:44:14;100232.69;;;28.08;33.86
49423;BME280;36998;51.974;20.150;2022-07-03T18:46:39;100223.31;;;27.78;34.68
49423;BME280;36998;51.974;20.150;2022-07-03T18:49:06;100239.13;;;27.47;35.07
49423;BME280;36998;51.974;20.150;2022-07-03T18:51:54;100232.69;;;27.16;35.68
49423;BME280;36998;51.974;20.150;2022-07-03T18:54:38;100235.09;;;26.87;36.28
49423;BME280;36998;51.974;20.150;2022-07-03T18:57:17;100252.19;;;26.63;37.03
49423;BME280;36998;51.974;20.150;2022-07-03T19:00:04;100244.00;;;26.36;37.39
49423;BME280;36998;51.974;20.150;2022-07-03T19:02:36;100249.38;;;26.10;37.96
49423;BME280;36998;51.974;20.150;2022-07-03T19:05:07;100246.72;;;25.88;38.54
49423;BME280;36998;51.974;20.150;2022-07-03T19:07:48;100254.25;;;25.66;39.04
49423;BME280;36998;51.974;20.150;2022-07-03T19:10:25;100261.88;;;25.49;39.40
49423;BME280;36998;51.974;20.150;2022-07-03T19:13:02;100258.41;;;25.31;39.95
49423;BME280;36998;51.974;20.150;2022-07-03T19:15:37;100263.47;;;25.17;40.49
49423;BME280;36998;51.974;20.150;2022-07-03T19:18:04;100256.69;;;25.03;41.08
49423;BME280;36998;51.974;20.150;2022-07-03T19:20:30;100261.50;;;24.91;41.46
49423;BME280;36998;51.974;20.150;2022-07-03T19:22:58;100256.97;;;24.80;41.87
49423;BME280;36998;51.974;20.150;2022-07-03T19:25:23;100258.50;;;24.70;42.08
49423;BME280;36998;51.974;20.150;2022-07-03T19:27:49;100261.16;;;24.60;42.48
49423;BME280;36998;51.974;20.150;2022-07-03T19:30:16;100256.56;;;24.49;42.95
49423;BME280;36998;51.974;20.150;2022-07-03T19:32:43;100265.03;;;24.42;43.42
49423;BME280;36998;51.974;20.150;2022-07-03T19:35:12;100257.19;;;24.34;43.72
49423;BME280;36998;51.974;20.150;2022-07-03T19:37:38;100255.94;;;24.25;44.19
49423;BME280;36998;51.974;20.150;2022-07-03T19:40:05;100264.16;;;24.20;44.30
49423;BME280;36998;51.974;20.150;2022-07-03T19:42:30;100270.09;;;24.12;44.62
49423;BME280;36998;51.974;20.150;2022-07-03T19:44:56;100267.19;;;24.01;45.49
49423;BME280;36998;51.974;20.150;2022-07-03T19:47:21;100267.59;;;23.93;46.15
49423;BME280;36998;51.974;20.150;2022-07-03T19:49:47;100265.28;;;23.85;46.28
49423;BME280;36998;51.974;20.150;2022-07-03T19:52:12;100269.03;;;23.79;46.72
49423;BME280;36998;51.974;20.150;2022-07-03T19:54:38;100268.69;;;23.75;46.63
49423;BME280;36998;51.974;20.150;2022-07-03T19:57:05;100275.03;;;23.76;46.85
49423;BME280;36998;51.974;20.150;2022-07-03T19:59:30;100277.31;;;23.79;47.17
49423;BME280;36998;51.974;20.150;2022-07-03T20:01:56;100280.91;;;23.79;47.42
49423;BME280;36998;51.974;20.150;2022-07-03T20:04:21;100278.06;;;23.74;48.22
49423;BME280;36998;51.974;20.150;2022-07-03T20:06:47;100274.97;;;23.71;48.60
49423;BME280;36998;51.974;20.150;2022-07-03T20:09:15;100278.09;;;23.63;49.14
49423;BME280;36998;51.974;20.150;2022-07-03T20:11:41;100277.66;;;23.54;49.57
49423;BME280;36998;51.974;20.150;2022-07-03T20:14:06;100287.09;;;23.41;50.35
49423;BME280;36998;51.974;20.150;2022-07-03T20:16:31;100274.47;;;23.28;50.82
49423;BME280;36998;51.974;20.150;2022-07-03T20:18:57;100281.69;;;23.18;51.27
49423;BME280;36998;51.974;20.150;2022-07-03T20:21:23;100295.75;;;23.04;51.98
49423;BME280;36998;51.974;20.150;2022-07-03T20:23:48;100285.38;;;22.95;52.71
49423;BME280;36998;51.974;20.150;2022-07-03T20:26:32;100283.47;;;22.83;52.95
49423;BME280;36998;51.974;20.150;2022-07-03T20:28:57;100284.34;;;22.72;53.61
49423;BME280;36998;51.974;20.150;2022-07-03T20:31:24;100280.06;;;22.64;54.34
49423;BME280;36998;51.974;20.150;2022-07-03T20:33:50;100277.69;;;22.56;54.74
49423;BME280;36998;51.974;20.150;2022-07-03T20:36:15;100272.53;;;22.48;54.90
49423;BME280;36998;51.974;20.150;2022-07-03T20:38:41;100276.53;;;22.40;55.58
49423;BME280;36998;51.974;20.150;2022-07-03T20:41:07;100276.41;;;22.35;56.12
49423;BME280;36998;51.974;20.150;2022-07-03T20:43:33;100278.91;;;22.25;56.46
49423;BME280;36998;51.974;20.150;2022-07-03T20:45:58;100277.13;;;22.19;56.87
49423;BME280;36998;51.974;20.150;2022-07-03T20:48:24;100277.22;;;22.12;57.32
49423;BME280;36998;51.974;20.150;2022-07-03T20:50:49;100268.00;;;22.07;57.50
49423;BME280;36998;51.974;20.150;2022-07-03T20:53:15;100275.53;;;22.00;57.54
49423;BME280;36998;51.974;20.150;2022-07-03T20:55:40;100270.75;;;21.95;57.75
49423;BME280;36998;51.974;20.150;2022-07-03T20:58:06;100277.81;;;21.91;58.30
49423;BME280;36998;51.974;20.150;2022-07-03T21:00:33;100280.66;;;21.84;58.74
49423;BME280;36998;51.974;20.150;2022-07-03T21:02:59;100275.28;;;21.78;58.93
49423;BME280;36998;51.974;20.150;2022-07-03T21:05:24;100283.16;;;21.74;59.20
49423;BME280;36998;51.974;20.150;2022-07-03T21:07:50;100284.50;;;21.71;59.39
49423;BME280;36998;51.974;20.150;2022-07-03T21:10:15;100280.53;;;21.67;59.64
49423;BME280;36998;51.974;20.150;2022-07-03T21:12:41;100278.72;;;21.61;59.98
49423;BME280;36998;51.974;20.150;2022-07-03T21:15:06;100289.59;;;21.56;60.39
49423;BME280;36998;51.974;20.150;2022-07-03T21:17:32;100289.91;;;21.48;60.58
49423;BME280;36998;51.974;20.150;2022-07-03T21:19:57;100290.88;;;21.42;60.80
49423;BME280;36998;51.974;20.150;2022-07-03T21:22:23;100296.22;;;21.37;60.74
49423;BME280;36998;51.974;20.150;2022-07-03T21:24:49;100297.13;;;21.31;61.59
49423;BME280;36998;51.974;20.150;2022-07-03T21:27:14;100290.28;;;21.21;61.73
49423;BME280;36998;51.974;20.150;2022-07-03T21:29:41;100294.56;;;21.17;62.34
49423;BME280;36998;51.974;20.150;2022-07-03T21:32:07;100291.91;;;21.11;62.61
49423;BME280;36998;51.974;20.150;2022-07-03T21:34:32;100290.34;;;21.03;62.76
49423;BME280;36998;51.974;20.150;2022-07-03T21:36:58;100291.03;;;20.98;63.03
49423;BME280;36998;51.974;20.150;2022-07-03T21:39:26;100293.03;;;20.91;63.54
49423;BME280;36998;51.974;20.150;2022-07-03T21:41:51;100288.00;;;20.88;63.86
49423;BME280;36998;51.974;20.150;2022-07-03T21:44:17;100294.19;;;20.84;64.09
49423;BME280;36998;51.974;20.150;2022-07-03T21:46:42;100295.69;;;20.79;64.29
49423;BME280;36998;51.974;20.150;2022-07-03T21:49:13;100285.66;;;20.73;64.37
49423;BME280;36998;51.974;20.150;2022-07-03T21:51:40;100288.00;;;20.70;64.65
49423;BME280;36998;51.974;20.150;2022-07-03T21:54:06;100286.19;;;20.64;65.04
49423;BME280;36998;51.974;20.150;2022-07-03T21:56:31;100284.97;;;20.60;65.01
49423;BME280;36998;51.974;20.150;2022-07-03T21:58:57;100290.06;;;20.56;65.40
49423;BME280;36998;51.974;20.150;2022-07-03T22:01:23;100279.78;;;20.51;65.76
49423;BME280;36998;51.974;20.150;2022-07-03T22:03:48;100280.22;;;20.48;65.56
49423;BME280;36998;51.974;20.150;2022-07-03T22:06:13;100281.75;;;20.44;66.48
49423;BME280;36998;51.974;20.150;2022-07-03T22:08:39;100284.09;;;20.41;65.78
49423;BME280;36998;51.974;20.150;2022-07-03T22:11:25;100283.94;;;20.35;66.14
49423;BME280;36998;51.974;20.150;2022-07-03T22:14:20;100279.34;;;20.29;66.09
49423;BME280;36998;51.974;20.150;2022-07-03T22:17:52;100275.41;;;20.25;66.07
49423;BME280;36998;51.974;20.150;2022-07-03T22:21:20;100276.31;;;20.19;66.36
49423;BME280;36998;51.974;20.150;2022-07-03T22:23:45;100275.28;;;20.14;66.93
49423;BME280;36998;51.974;20.150;2022-07-03T22:26:11;100268.16;;;20.13;67.26
49423;BME280;36998;51.974;20.150;2022-07-03T22:28:36;100267.75;;;20.09;66.98
49423;BME280;36998;51.974;20.150;2022-07-03T22:31:02;100266.31;;;20.06;67.47
49423;BME280;36998;51.974;20.150;2022-07-03T22:33:46;100268.22;;;20.06;67.34
49423;BME280;36998;51.974;20.150;2022-07-03T22:36:12;100266.75;;;20.03;67.44
49423;BME280;36998;51.974;20.150;2022-07-03T22:38:37;100262.09;;;20.04;68.04
49423;BME280;36998;51.974;20.150;2022-07-03T22:41:03;100252.66;;;20.00;68.15
49423;BME280;36998;51.974;20.150;2022-07-03T22:43:28;100248.47;;;19.97;68.25
49423;BME280;36998;51.974;20.150;2022-07-03T22:45:53;100255.84;;;19.97;68.30
49423;BME280;36998;51.974;20.150;2022-07-03T22:48:19;100253.13;;;19.97;68.37
49423;BME280;36998;51.974;20.150;2022-07-03T22:50:44;100258.00;;;19.95;68.39
49423;BME280;36998;51.974;20.150;2022-07-03T22:53:10;100256.31;;;19.94;68.63
49423;BME280;36998;51.974;20.150;2022-07-03T22:55:36;100256.53;;;19.92;68.67
49423;BME280;36998;51.974;20.150;2022-07-03T22:58:01;100252.34;;;19.90;68.79
49423;BME280;36998;51.974;20.150;2022-07-03T23:00:27;100241.81;;;19.86;69.11
49423;BME280;36998;51.974;20.150;2022-07-03T23:02:52;100245.66;;;19.85;68.86
49423;BME280;36998;51.974;20.150;2022-07-03T23:05:17;100250.50;;;19.83;69.03
49423;BME280;36998;51.974;20.150;2022-07-03T23:07:43;100239.97;;;19.80;69.10
49423;BME280;36998;51.974;20.150;2022-07-03T23:10:09;100242.97;;;19.79;69.31
49423;BME280;36998;51.974;20.150;2022-07-03T23:12:34;100238.13;;;19.74;69.14
49423;BME280;36998;51.974;20.150;2022-07-03T23:15:00;100235.84;;;19.71;69.50
49423;BME280;36998;51.974;20.150;2022-07-03T23:17:25;100241.78;;;19.68;69.40
49423;BME280;36998;51.974;20.150;2022-07-03T23:19:51;100238.44;;;19.66;69.80
49423;BME280;36998;51.974;20.150;2022-07-03T23:22:16;100238.22;;;19.61;69.67
49423;BME280;36998;51.974;20.150;2022-07-03T23:24:42;100231.72;;;19.55;70.02
49423;BME280;36998;51.974;20.150;2022-07-03T23:27:07;100228.16;;;19.55;70.02
49423;BME280;36998;51.974;20.150;2022-07-03T23:29:33;100224.81;;;19.53;70.05
49423;BME280;36998;51.974;20.150;2022-07-03T23:31:58;100224.19;;;19.51;70.54
49423;BME280;36998;51.974;20.150;2022-07-03T23:34:24;100224.63;;;19.48;70.51
49423;BME280;36998;51.974;20.150;2022-07-03T23:36:49;100220.22;;;19.47;70.67
49423;BME280;36998;51.974;20.150;2022-07-03T23:39:15;100219.41;;;19.46;70.83
49423;BME280;36998;51.974;20.150;2022-07-03T23:41:41;100211.19;;;19.46;71.16
49423;BME280;36998;51.974;20.150;2022-07-03T23:44:06;100211.78;;;19.48;71.37
49423;BME280;36998;51.974;20.150;2022-07-03T23:46:32;100216.41;;;19.48;71.38
49423;BME280;36998;51.974;20.150;2022-07-03T23:48:58;100221.31;;;19.46;71.42
49423;BME280;36998;51.974;20.150;2022-07-03T23:51:42;100216.88;;;19.45;71.40
49423;BME280;36998;51.974;20.150;2022-07-03T23:54:07;100205.91;;;19.45;71.23
49423;BME280;36998;51.974;20.150;2022-07-03T23:56:33;100209.09;;;19.41;71.36
49423;BME280;36998;51.974;20.150;2022-07-03T23:58:58;100211.00;;;19.41;71.38
